createdAt,value
2023-05-24T00:03:35.335Z,16.99
2023-05-24T00:06:04.425Z,16.97
2023-05-24T00:08:36.663Z,16.95
2023-05-24T00:11:05.168Z,16.91
2023-05-24T00:13:33.748Z,16.84
2023-05-24T00:16:03.366Z,16.78
2023-05-24T00:18:31.516Z,16.71
2023-05-24T00:21:00.176Z,16.63
2023-05-24T00:23:28.809Z,16.56
2023-05-24T00:25:57.894Z,16.50
2023-05-24T00:28:26.057Z,16.44
2023-05-24T00:30:54.195Z,16.42
2023-05-24T00:33:22.539Z,16.43
2023-05-24T00:35:55.449Z,16.43
2023-05-24T00:38:25.662Z,16.43
2023-05-24T00:40:55.152Z,16.43
2023-05-24T00:43:24.049Z,16.42
2023-05-24T00:46:12.590Z,16.39
2023-05-24T00:48:42.763Z,16.35
2023-05-24T00:51:14.014Z,16.35
2023-05-24T00:53:46.041Z,16.35
2023-05-24T00:56:16.828Z,16.34
2023-05-24T00:58:46.282Z,16.34
2023-05-24T01:01:14.824Z,16.33
2023-05-24T01:03:44.630Z,16.34
2023-05-24T01:06:14.238Z,16.32
2023-05-24T01:09:06.677Z,16.31
2023-05-24T01:11:46.236Z,16.31
2023-05-24T01:14:37.264Z,16.30
2023-05-24T01:17:31.484Z,16.29
2023-05-24T01:20:08.776Z,16.26
2023-05-24T01:23:42.812Z,16.25
2023-05-24T01:26:37.836Z,16.24
2023-05-24T01:29:08.499Z,16.25
2023-05-24T01:31:38.005Z,16.25
2023-05-24T01:34:07.353Z,16.26
2023-05-24T01:36:36.545Z,16.25
2023-05-24T01:39:06.191Z,16.24
2023-05-24T01:41:47.889Z,16.24
2023-05-24T01:44:23.330Z,16.23
2023-05-24T01:47:02.524Z,16.21
2023-05-24T01:49:38.415Z,16.20
2023-05-24T01:52:12.556Z,16.20
2023-05-24T01:54:46.112Z,16.17
2023-05-24T01:57:15.765Z,16.14
2023-05-24T01:59:45.768Z,16.13
2023-05-24T02:02:15.573Z,16.12
2023-05-24T02:04:46.214Z,16.10
2023-05-24T02:07:14.967Z,16.07
2023-05-24T02:09:43.628Z,16.06
2023-05-24T02:12:13.178Z,16.03
2023-05-24T02:14:43.179Z,16.02
2023-05-24T02:17:11.977Z,15.99
2023-05-24T02:19:41.644Z,15.98
2023-05-24T02:22:10.758Z,15.97
2023-05-24T02:24:39.760Z,15.96
2023-05-24T02:27:09.247Z,15.94
2023-05-24T02:29:38.666Z,15.94
2023-05-24T02:32:08.177Z,15.94
2023-05-24T02:34:36.326Z,15.94
2023-05-24T02:37:05.358Z,15.93
2023-05-24T02:39:33.904Z,15.95
2023-05-24T02:42:02.920Z,15.96
2023-05-24T02:44:31.509Z,15.98
2023-05-24T02:47:00.262Z,15.98
2023-05-24T02:49:28.835Z,15.97
2023-05-24T02:51:57.647Z,15.97
2023-05-24T02:54:26.114Z,15.95
2023-05-24T02:56:54.318Z,15.94
2023-05-24T02:59:22.960Z,15.94
2023-05-24T03:01:52.716Z,15.94
2023-05-24T03:04:21.810Z,15.96
2023-05-24T03:06:50.404Z,15.96
2023-05-24T03:09:18.876Z,15.96
2023-05-24T03:11:47.498Z,15.96
2023-05-24T03:14:16.358Z,15.98
2023-05-24T03:16:45.189Z,15.99
2023-05-24T03:19:13.895Z,16.00
2023-05-24T03:21:43.319Z,15.99
2023-05-24T03:24:11.469Z,16.01
2023-05-24T03:26:43.281Z,16.02
2023-05-24T03:29:11.994Z,16.01
2023-05-24T03:31:40.793Z,16.02
2023-05-24T03:34:09.532Z,16.02
2023-05-24T03:36:37.617Z,16.02
2023-05-24T03:39:06.327Z,16.01
2023-05-24T03:41:34.892Z,16.02
2023-05-24T03:44:04.081Z,16.03
2023-05-24T03:46:32.848Z,16.01
2023-05-24T03:49:01.495Z,16.02
2023-05-24T03:51:30.563Z,16.01
2023-05-24T03:53:59.190Z,16.01
2023-05-24T03:56:28.364Z,15.98
2023-05-24T03:58:59.559Z,15.97
2023-05-24T04:01:34.257Z,15.96
2023-05-24T04:04:04.617Z,15.96
2023-05-24T04:06:33.492Z,15.96
2023-05-24T04:09:01.628Z,15.95
2023-05-24T04:11:30.820Z,15.95
2023-05-24T04:14:00.367Z,15.95
2023-05-24T04:16:29.590Z,15.94
2023-05-24T04:18:58.396Z,15.94
2023-05-24T04:21:26.879Z,15.95
2023-05-24T04:23:56.048Z,15.95
2023-05-24T04:26:24.250Z,15.95
2023-05-24T04:28:53.631Z,15.96
2023-05-24T04:31:22.318Z,15.96
2023-05-24T04:33:50.563Z,15.96
2023-05-24T04:36:18.917Z,15.97
2023-05-24T04:38:47.861Z,15.97
2023-05-24T04:41:17.185Z,15.97
2023-05-24T04:43:45.703Z,15.97
2023-05-24T04:46:14.445Z,15.98
2023-05-24T04:48:42.637Z,15.98
2023-05-24T04:51:10.982Z,15.99
2023-05-24T04:53:39.844Z,15.99
2023-05-24T04:56:08.223Z,15.99
2023-05-24T04:58:38.771Z,15.99
2023-05-24T05:01:07.858Z,16.00
2023-05-24T05:03:36.178Z,16.00
2023-05-24T05:06:07.870Z,15.99
2023-05-24T05:08:36.004Z,16.00
2023-05-24T05:11:04.702Z,16.01
2023-05-24T05:13:33.317Z,16.02
2023-05-24T05:16:02.750Z,16.01
2023-05-24T05:18:31.455Z,16.00
2023-05-24T05:21:00.377Z,16.00
2023-05-24T05:23:30.153Z,16.00
2023-05-24T05:25:58.399Z,16.01
2023-05-24T05:28:27.852Z,16.02
2023-05-24T05:30:56.989Z,16.03
2023-05-24T05:33:25.445Z,16.04
2023-05-24T05:35:55.015Z,16.04
2023-05-24T05:38:24.694Z,16.05
2023-05-24T05:40:53.394Z,16.05
2023-05-24T05:43:22.457Z,16.05
2023-05-24T05:45:51.138Z,16.04
2023-05-24T05:48:20.392Z,16.04
2023-05-24T05:50:49.217Z,16.03
2023-05-24T05:53:17.851Z,16.02
2023-05-24T05:55:46.691Z,16.00
2023-05-24T05:58:15.771Z,16.00
2023-05-24T06:00:44.663Z,16.00
2023-05-24T06:03:13.725Z,16.00
2023-05-24T06:05:42.549Z,15.99
2023-05-24T06:08:10.694Z,15.99
2023-05-24T06:10:39.412Z,16.00
2023-05-24T06:13:08.164Z,16.01
2023-05-24T06:15:36.870Z,16.01
2023-05-24T06:18:05.677Z,16.01
2023-05-24T06:20:35.293Z,16.02
2023-05-24T06:23:04.765Z,16.03
2023-05-24T06:25:33.295Z,16.03
2023-05-24T06:28:02.779Z,16.05
2023-05-24T06:30:32.240Z,16.05
2023-05-24T06:33:02.001Z,16.06
2023-05-24T06:35:31.396Z,16.08
2023-05-24T06:38:00.555Z,16.09
2023-05-24T06:40:29.200Z,16.11
2023-05-24T06:42:57.966Z,16.12
2023-05-24T06:45:26.824Z,16.12
2023-05-24T06:47:55.622Z,16.14
2023-05-24T06:50:25.685Z,16.15
2023-05-24T06:52:54.783Z,16.16
2023-05-24T06:55:23.199Z,16.18
2023-05-24T06:57:51.945Z,16.18
2023-05-24T07:00:20.801Z,16.19
2023-05-24T07:02:49.012Z,16.19
2023-05-24T07:05:18.464Z,16.20
2023-05-24T07:07:46.973Z,16.20
2023-05-24T07:10:16.032Z,16.21
2023-05-24T07:12:44.792Z,16.21
2023-05-24T07:15:13.734Z,16.21
2023-05-24T07:17:42.513Z,16.19
2023-05-24T07:20:11.928Z,16.19
2023-05-24T07:22:41.282Z,16.20
2023-05-24T07:25:11.684Z,16.22
2023-05-24T07:27:39.872Z,16.24
2023-05-24T07:30:23.644Z,16.26
2023-05-24T07:32:59.514Z,16.28
2023-05-24T07:35:28.261Z,16.29
2023-05-24T07:37:57.012Z,16.30
2023-05-24T07:40:26.379Z,16.31
2023-05-24T07:42:55.504Z,16.32
2023-05-24T07:45:23.618Z,16.32
2023-05-24T07:47:53.849Z,16.32
2023-05-24T07:50:24.127Z,16.32
2023-05-24T07:52:52.826Z,16.32
2023-05-24T07:55:20.988Z,16.32
2023-05-24T07:57:49.714Z,16.34
2023-05-24T08:00:19.322Z,16.35
2023-05-24T08:02:49.050Z,16.36
2023-05-24T08:05:19.218Z,16.36
2023-05-24T08:07:51.131Z,16.38
2023-05-24T08:10:22.935Z,16.39
2023-05-24T08:12:52.375Z,16.41
2023-05-24T08:15:21.262Z,16.42
2023-05-24T08:17:49.645Z,16.42
2023-05-24T08:20:18.025Z,16.41
2023-05-24T08:22:47.439Z,16.41
2023-05-24T08:25:15.713Z,16.40
2023-05-24T08:27:43.978Z,16.41
2023-05-24T08:30:13.275Z,16.40
2023-05-24T08:32:41.517Z,16.42
2023-05-24T08:35:19.443Z,16.41
2023-05-24T08:37:50.937Z,16.40
2023-05-24T08:40:20.641Z,16.40
2023-05-24T08:42:50.485Z,16.38
2023-05-24T08:45:21.523Z,16.35
2023-05-24T08:47:50.744Z,16.32
2023-05-24T08:50:20.870Z,16.28
2023-05-24T08:52:49.813Z,16.26
2023-05-24T08:55:18.990Z,16.23
2023-05-24T08:57:48.912Z,16.23
2023-05-24T09:00:20.675Z,16.22
2023-05-24T09:02:49.908Z,16.20
2023-05-24T09:05:20.149Z,16.19
2023-05-24T09:07:50.395Z,16.18
2023-05-24T09:10:21.261Z,16.18
2023-05-24T09:12:56.543Z,16.19
2023-05-24T09:15:24.671Z,16.19
2023-05-24T09:17:53.716Z,16.20
2023-05-24T09:20:22.225Z,16.19
2023-05-24T09:22:53.580Z,16.19
2023-05-24T09:25:22.727Z,16.20
2023-05-24T09:27:53.183Z,16.21
2023-05-24T09:30:23.008Z,16.23
2023-05-24T09:33:00.404Z,16.25
2023-05-24T09:35:29.202Z,16.26
2023-05-24T09:37:59.085Z,16.26
2023-05-24T09:40:28.789Z,16.26
2023-05-24T09:43:05.628Z,16.27
2023-05-24T09:45:39.426Z,16.27
2023-05-24T09:48:11.742Z,16.26
2023-05-24T09:50:41.432Z,16.27
2023-05-24T09:53:10.358Z,16.28
2023-05-24T09:55:39.080Z,16.31
2023-05-24T09:58:09.228Z,16.33
2023-05-24T10:00:42.515Z,16.34
2023-05-24T10:03:13.649Z,16.36
2023-05-24T10:05:45.139Z,16.37
2023-05-24T10:08:16.399Z,16.37
2023-05-24T10:10:45.938Z,16.37
2023-05-24T10:13:16.187Z,16.36
2023-05-24T10:15:45.524Z,16.36
2023-05-24T10:18:14.595Z,16.34
2023-05-24T10:20:44.466Z,16.33
2023-05-24T10:23:33.581Z,16.33
2023-05-24T10:26:08.498Z,16.32
2023-05-24T10:29:01.900Z,16.32
2023-05-24T10:31:39.578Z,16.31
2023-05-24T10:34:09.643Z,16.28
2023-05-24T10:36:39.386Z,16.27
2023-05-24T10:39:10.290Z,16.25
2023-05-24T10:41:40.816Z,16.18
2023-05-24T10:44:13.667Z,16.12
2023-05-24T10:47:11.855Z,16.09
2023-05-24T10:49:57.304Z,16.09
2023-05-24T10:52:36.163Z,16.07
2023-05-24T10:55:11.333Z,16.06
2023-05-24T10:57:46.277Z,16.06
2023-05-24T11:00:34.593Z,16.05
2023-05-24T11:03:07.913Z,16.06
2023-05-24T11:05:56.538Z,16.06
2023-05-24T11:08:30.783Z,16.07
2023-05-24T11:13:43.553Z,16.10
2023-05-24T11:16:35.666Z,16.11
2023-05-24T11:19:25.050Z,16.15
2023-05-24T11:21:54.025Z,16.21
2023-05-24T11:24:22.894Z,16.28
2023-05-24T11:26:52.462Z,16.40
2023-05-24T11:29:21.728Z,16.54
2023-05-24T11:31:52.484Z,16.72
2023-05-24T11:34:21.776Z,16.89
2023-05-24T11:36:51.206Z,17.03
2023-05-24T11:39:19.589Z,17.15
2023-05-24T11:41:48.294Z,17.22
2023-05-24T11:44:18.587Z,17.27
2023-05-24T11:46:47.452Z,17.29
2023-05-24T11:49:17.098Z,17.30
2023-05-24T11:51:47.646Z,17.34
2023-05-24T11:54:20.153Z,17.46
2023-05-24T11:56:48.840Z,17.63
2023-05-24T11:59:22.622Z,17.86
2023-05-24T12:01:58.087Z,18.08
2023-05-24T12:04:29.080Z,18.26
2023-05-24T12:06:57.985Z,18.41
2023-05-24T12:09:27.799Z,18.51
2023-05-24T12:11:56.619Z,18.63
2023-05-24T12:14:29.674Z,18.74
2023-05-24T12:16:59.745Z,18.83
2023-05-24T12:19:34.082Z,18.93
2023-05-24T12:22:07.542Z,19.12
2023-05-24T12:24:38.119Z,19.29
2023-05-24T12:27:06.998Z,19.47
2023-05-24T12:29:36.818Z,19.64
2023-05-24T12:32:06.635Z,19.78
2023-05-24T12:34:35.061Z,19.93
2023-05-24T12:37:04.778Z,20.05
2023-05-24T12:39:37.402Z,20.16
2023-05-24T12:42:06.126Z,20.22
2023-05-24T12:44:38.671Z,20.27
2023-05-24T12:47:08.873Z,20.42
2023-05-24T12:49:37.367Z,20.54
2023-05-24T12:52:06.616Z,20.62
2023-05-24T12:54:35.270Z,20.69
2023-05-24T12:57:03.580Z,20.76
2023-05-24T12:59:34.129Z,20.88
2023-05-24T13:02:02.963Z,21.04
2023-05-24T13:04:31.122Z,21.23
2023-05-24T13:06:59.787Z,21.47
2023-05-24T13:09:29.052Z,21.69
2023-05-24T13:11:57.876Z,21.86
2023-05-24T13:14:27.249Z,21.99
2023-05-24T13:16:55.901Z,22.08
2023-05-24T13:19:24.339Z,22.17
2023-05-24T13:21:53.583Z,22.20
2023-05-24T13:24:22.352Z,22.19
2023-05-24T13:26:53.010Z,22.17
2023-05-24T13:31:55.818Z,22.02
2023-05-24T13:34:24.538Z,21.88
2023-05-24T13:36:56.156Z,21.76
2023-05-24T13:39:31.520Z,21.78
2023-05-24T13:41:59.805Z,21.80
2023-05-24T13:44:29.242Z,21.87
2023-05-24T13:46:58.842Z,21.95
2023-05-24T13:49:27.550Z,22.11
2023-05-24T13:51:58.510Z,22.27
2023-05-24T13:54:27.448Z,22.44
2023-05-24T13:56:56.266Z,22.41
2023-05-24T13:59:24.353Z,22.42
2023-05-24T14:01:52.874Z,22.55
2023-05-24T14:04:23.704Z,22.72
2023-05-24T14:06:52.181Z,22.79
2023-05-24T14:09:20.324Z,22.82
2023-05-24T14:11:48.840Z,22.75
2023-05-24T14:16:48.667Z,22.73
2023-05-24T14:19:16.824Z,22.75
2023-05-24T14:21:45.531Z,22.74
2023-05-24T14:24:14.314Z,22.73
2023-05-24T14:26:42.662Z,22.71
2023-05-24T14:29:11.034Z,22.60
2023-05-24T14:31:39.462Z,22.45
2023-05-24T14:34:11.843Z,22.40
2023-05-24T14:36:40.535Z,22.40
2023-05-24T14:39:09.565Z,22.36
2023-05-24T14:41:38.287Z,22.35
2023-05-24T14:44:07.861Z,22.34
2023-05-24T14:46:36.244Z,22.37
2023-05-24T14:49:05.676Z,22.39
2023-05-24T14:51:34.176Z,22.35
2023-05-24T14:54:03.526Z,22.23
2023-05-24T14:56:31.985Z,22.21
2023-05-24T14:59:00.118Z,22.23
2023-05-24T15:01:28.325Z,22.27
2023-05-24T15:03:56.960Z,22.30
2023-05-24T15:06:25.287Z,22.35
2023-05-24T15:08:53.606Z,22.38
2023-05-24T15:11:22.143Z,22.40
2023-05-24T15:13:51.272Z,22.42
2023-05-24T15:16:20.067Z,22.43
2023-05-24T15:18:48.462Z,22.48
2023-05-24T15:21:17.179Z,22.54
2023-05-24T15:23:45.470Z,22.57
2023-05-24T15:26:14.520Z,22.68
2023-05-24T15:28:42.781Z,22.78
2023-05-24T15:31:11.439Z,22.82
2023-05-24T15:33:39.625Z,22.81
2023-05-24T15:36:07.933Z,22.75
2023-05-24T15:38:36.849Z,22.71
2023-05-24T15:41:05.665Z,22.81
2023-05-24T15:43:33.810Z,22.93
2023-05-24T15:46:02.373Z,23.03
2023-05-24T15:48:30.654Z,23.10
2023-05-24T15:51:53.756Z,23.15
2023-05-24T15:53:47.088Z,23.15
2023-05-24T15:56:15.873Z,23.14
2023-05-24T15:58:44.926Z,23.12
2023-05-24T16:01:13.319Z,23.02
2023-05-24T16:03:41.568Z,22.94
2023-05-24T16:06:09.744Z,22.89
2023-05-24T16:08:37.991Z,22.87
2023-05-24T16:11:07.043Z,22.85
2023-05-24T16:13:35.176Z,22.82
2023-05-24T16:16:03.379Z,22.77
2023-05-24T16:18:31.578Z,22.70
2023-05-24T16:20:59.822Z,22.63
2023-05-24T16:23:28.121Z,22.59
2023-05-24T16:25:56.341Z,22.65
2023-05-24T16:28:24.579Z,22.76
2023-05-24T16:30:53.440Z,22.85
2023-05-24T16:33:24.042Z,22.95
2023-05-24T16:35:52.126Z,23.02
2023-05-24T16:38:20.327Z,23.04
2023-05-24T16:40:48.824Z,23.01
2023-05-24T16:43:17.809Z,23.00
2023-05-24T16:45:46.845Z,23.02
2023-05-24T16:48:15.344Z,23.01
2023-05-24T16:50:43.874Z,23.01
2023-05-24T16:53:12.489Z,22.97
2023-05-24T16:55:40.642Z,22.91
2023-05-24T16:58:08.840Z,22.77
2023-05-24T17:00:37.472Z,22.57
2023-05-24T17:03:05.750Z,22.41
2023-05-24T17:05:34.113Z,22.26
2023-05-24T17:08:02.299Z,22.10
2023-05-24T17:10:30.546Z,21.97
2023-05-24T17:12:59.089Z,21.86
2023-05-24T17:15:27.366Z,21.75
2023-05-24T17:17:56.530Z,21.61
2023-05-24T17:20:25.381Z,21.48
2023-05-24T17:22:54.119Z,21.36
2023-05-24T17:25:22.297Z,21.22
2023-05-24T17:27:50.504Z,21.10
2023-05-24T17:30:19.184Z,20.97
2023-05-24T17:32:47.651Z,20.88
2023-05-24T17:35:15.892Z,20.80
2023-05-24T17:37:44.305Z,20.74
2023-05-24T17:40:12.822Z,20.70
2023-05-24T17:42:41.062Z,20.68
2023-05-24T17:45:10.358Z,20.68
2023-05-24T17:47:38.562Z,20.69
2023-05-24T17:50:07.288Z,20.70
2023-05-24T17:52:35.523Z,20.69
2023-05-24T17:55:04.332Z,20.66
2023-05-24T17:57:32.528Z,20.62
2023-05-24T18:00:00.903Z,20.56
2023-05-24T18:02:29.266Z,20.50
2023-05-24T18:04:58.907Z,20.41
2023-05-24T18:07:27.351Z,20.30
2023-05-24T18:09:56.694Z,20.21
2023-05-24T18:12:26.361Z,20.12
2023-05-24T18:14:54.571Z,20.02
2023-05-24T18:17:22.831Z,19.94
2023-05-24T18:19:51.436Z,19.85
2023-05-24T18:22:19.713Z,19.78
2023-05-24T18:24:47.943Z,19.71
2023-05-24T18:27:16.191Z,19.65
2023-05-24T18:29:44.777Z,19.58
2023-05-24T18:32:13.312Z,19.52
2023-05-24T18:34:41.596Z,19.44
2023-05-24T18:37:09.827Z,19.38
2023-05-24T18:39:38.023Z,19.31
2023-05-24T18:42:06.245Z,19.26
2023-05-24T18:44:34.899Z,19.21
2023-05-24T18:47:03.711Z,19.18
2023-05-24T18:49:31.945Z,19.14
2023-05-24T18:52:01.838Z,19.10
2023-05-24T18:54:30.512Z,19.07
2023-05-24T18:56:58.712Z,19.04
2023-05-24T18:59:27.174Z,19.00
2023-05-24T19:01:55.903Z,18.97
2023-05-24T19:04:24.530Z,18.94
2023-05-24T19:06:52.683Z,18.91
2023-05-24T19:09:20.912Z,18.87
2023-05-24T19:11:49.456Z,18.84
2023-05-24T19:14:17.727Z,18.82
2023-05-24T19:16:47.095Z,18.80
2023-05-24T19:19:15.288Z,18.78
2023-05-24T19:21:43.718Z,18.77
2023-05-24T19:24:11.908Z,18.76
2023-05-24T19:26:40.019Z,18.75
2023-05-24T19:29:08.506Z,18.74
2023-05-24T19:31:36.827Z,18.73
2023-05-24T19:34:05.401Z,18.72
2023-05-24T19:36:33.944Z,18.71
2023-05-24T19:39:02.044Z,18.70
2023-05-24T19:41:30.292Z,18.68
2023-05-24T19:43:58.673Z,18.68
2023-05-24T19:46:27.292Z,18.68
2023-05-24T19:48:55.436Z,18.68
2023-05-24T19:51:23.932Z,18.67
2023-05-24T19:53:52.024Z,18.66
2023-05-24T19:56:20.035Z,18.66
2023-05-24T19:58:48.257Z,18.65
2023-05-24T20:01:16.527Z,18.66
2023-05-24T20:03:47.254Z,18.66
2023-05-24T20:06:16.273Z,18.66
2023-05-24T20:08:45.797Z,18.65
2023-05-24T20:11:14.467Z,18.65
2023-05-24T20:13:42.890Z,18.65
2023-05-24T20:16:12.035Z,18.64
2023-05-24T20:18:40.528Z,18.63
2023-05-24T20:21:08.670Z,18.63
2023-05-24T20:23:37.723Z,18.63
2023-05-24T20:26:06.383Z,18.62
2023-05-24T20:28:35.149Z,18.62
2023-05-24T20:31:03.507Z,18.61
2023-05-24T20:33:31.836Z,18.61
2023-05-24T20:36:01.795Z,18.60
2023-05-24T20:38:30.324Z,18.60
2023-05-24T20:40:59.680Z,18.59
2023-05-24T20:43:28.053Z,18.59
2023-05-24T20:45:56.518Z,18.58
2023-05-24T20:48:24.906Z,18.58
2023-05-24T20:50:55.021Z,18.57
2023-05-24T20:53:23.483Z,18.56
2023-05-24T20:55:51.770Z,18.55
2023-05-24T20:58:20.043Z,18.55
2023-05-24T21:00:48.714Z,18.54
2023-05-24T21:03:17.414Z,18.54
2023-05-24T21:05:46.108Z,18.54
2023-05-24T21:08:15.626Z,18.53
2023-05-24T21:10:44.132Z,18.54
2023-05-24T21:13:12.790Z,18.52
2023-05-24T21:15:43.138Z,18.52
2023-05-24T21:18:13.887Z,18.51
2023-05-24T21:20:42.669Z,18.50
2023-05-24T21:23:10.925Z,18.49
2023-05-24T21:25:39.298Z,18.48
2023-05-24T21:28:07.942Z,18.48
2023-05-24T21:30:36.095Z,18.48
2023-05-24T21:33:04.333Z,18.47
2023-05-24T21:35:32.970Z,18.45
2023-05-24T21:38:01.295Z,18.44
2023-05-24T21:40:30.104Z,18.43
2023-05-24T21:42:59.707Z,18.41
2023-05-24T21:45:27.841Z,18.40
2023-05-24T21:47:56.635Z,18.37
2023-05-24T21:50:25.301Z,18.35
2023-05-24T21:52:53.458Z,18.32
2023-05-24T21:55:23.200Z,18.29
2023-05-24T21:57:51.630Z,18.26
2023-05-24T22:00:19.973Z,18.21
2023-05-24T22:02:48.537Z,18.18
2023-05-24T22:05:16.866Z,18.14
2023-05-24T22:07:45.356Z,18.11
2023-05-24T22:10:14.251Z,18.08
2023-05-24T22:12:42.540Z,18.06
2023-05-24T22:15:10.872Z,18.03
2023-05-24T22:17:39.131Z,18.02
2023-05-24T22:20:09.054Z,18.01
2023-05-24T22:22:38.552Z,18.01
2023-05-24T22:25:07.722Z,18.00
2023-05-24T22:27:36.168Z,18.00
2023-05-24T22:30:04.521Z,17.99
2023-05-24T22:32:33.006Z,17.99
2023-05-24T22:35:01.202Z,17.99
2023-05-24T22:37:29.886Z,17.99
2023-05-24T22:39:58.359Z,17.99
2023-05-24T22:42:26.789Z,17.98
2023-05-24T22:44:54.920Z,17.98
2023-05-24T22:47:23.246Z,17.97
2023-05-24T22:49:51.513Z,17.96
2023-05-24T22:52:21.153Z,17.95
2023-05-24T22:54:49.578Z,17.93
2023-05-24T22:57:17.921Z,17.92
2023-05-24T22:59:46.022Z,17.91
2023-05-24T23:02:14.891Z,17.90
2023-05-24T23:04:43.735Z,17.90
2023-05-24T23:07:14.993Z,17.89
2023-05-24T23:09:44.010Z,17.89
2023-05-24T23:12:12.294Z,17.89
2023-05-24T23:14:41.690Z,17.88
2023-05-24T23:17:11.198Z,17.88
2023-05-24T23:19:40.938Z,17.90
2023-05-24T23:22:13.003Z,17.90
2023-05-24T23:24:48.491Z,17.91
2023-05-24T23:27:16.981Z,17.92
2023-05-24T23:29:45.234Z,17.93
2023-05-24T23:32:13.336Z,17.94
2023-05-24T23:34:41.529Z,17.95
2023-05-24T23:37:09.705Z,17.94
2023-05-24T23:39:38.910Z,17.93
2023-05-24T23:42:07.123Z,17.92
2023-05-24T23:44:35.176Z,17.90
2023-05-24T23:47:03.642Z,17.88
2023-05-24T23:49:32.701Z,17.85
2023-05-24T23:52:01.305Z,17.82
2023-05-24T23:54:29.576Z,17.78
2023-05-24T23:56:57.934Z,17.74
2023-05-24T23:59:26.083Z,17.70
